Dark Hollow, Indiana
Current Conditions -  °F | °C
As of 3:53 AM on Saturday 22 Nov 2014 (Local Time) from KBMG Reporting Station
Light Rain Light Rain  
Wind Chill: 26°   Ceiling: 4800
Heat Index: 34°   Visibility: 8mi
Dew Point: 29°   Wind: 10mph
Humidity: 82%   Direction: 150°SSE
Pressure: 30.25"   Gusts: NA
Location:  38.8737°N, 86.4563°W
Report Text: KBMG 220853Z AUTO 15009KT 8SM -RA FEW037 BKN048 OVC075 01/M02 A3025 RMK AO2 SLP250 P0000 60001 T00111017 58014
Loading
Personal Weather Stations






























Interactive Weather Map New forecast layout! Learn more

10-Day Weather Forecast

Advertisements
Track Severe Weather on mobile